createdAt,value
2023-01-09T05:07:44.342Z,100966.00
2023-01-09T05:13:46.745Z,100954.41
2023-01-09T05:19:51.797Z,100957.47
2023-01-09T05:25:54.683Z,100944.56
2023-01-09T05:31:57.675Z,100927.31
2023-01-09T05:38:02.073Z,100916.91
2023-01-09T05:44:05.104Z,100915.75
2023-01-09T05:50:07.715Z,100917.19
2023-01-09T05:56:11.719Z,100915.28
2023-01-09T06:02:23.127Z,100913.06
2023-01-09T06:08:25.885Z,100916.88
2023-01-09T06:14:29.935Z,100907.13
2023-01-09T06:20:32.497Z,100902.38
2023-01-09T06:26:35.592Z,100917.78
2023-01-09T06:32:37.748Z,100935.81
2023-01-09T06:38:41.546Z,100915.97
2023-01-09T06:44:43.759Z,100926.50
2023-01-09T06:50:48.471Z,100925.16
2023-01-09T06:56:52.855Z,100926.34
2023-01-09T07:02:55.689Z,100918.25
2023-01-09T07:08:59.570Z,100913.75
2023-01-09T07:15:03.029Z,100915.03
2023-01-09T07:21:08.730Z,100918.09
2023-01-09T07:27:11.434Z,100920.53
2023-01-09T07:33:23.868Z,100911.69
2023-01-09T07:39:27.451Z,100923.09
2023-01-09T07:45:29.679Z,100923.09
2023-01-09T07:51:32.066Z,100917.25
2023-01-09T07:57:35.496Z,100900.03
2023-01-09T08:03:38.691Z,100890.56
2023-01-09T08:09:40.791Z,100894.44
2023-01-09T08:15:43.516Z,100902.38
2023-01-09T08:21:45.699Z,100901.88
2023-01-09T08:27:49.038Z,100888.06
2023-01-09T08:33:51.735Z,100884.88
2023-01-09T08:39:55.045Z,100883.97
2023-01-09T08:46:22.415Z,100867.88
2023-01-09T08:52:27.997Z,100861.91
2023-01-09T08:58:30.792Z,100865.03
2023-01-09T09:04:33.030Z,100845.63
2023-01-09T09:10:35.516Z,100845.94
2023-01-09T09:16:38.457Z,100845.47
2023-01-09T09:22:43.093Z,100832.69
2023-01-09T09:28:47.788Z,100829.53
2023-01-09T09:34:50.343Z,100835.25
2023-01-09T09:41:44.377Z,100831.34
2023-01-09T09:48:05.883Z,100817.81
2023-01-09T09:54:14.425Z,100815.78
2023-01-09T10:00:21.059Z,100809.03
2023-01-09T10:06:30.792Z,100810.94
2023-01-09T10:12:48.012Z,100802.25
2023-01-09T10:19:21.239Z,100781.31
2023-01-09T10:25:48.238Z,100781.81
2023-01-09T10:32:27.524Z,100782.88
2023-01-09T10:38:35.565Z,100766.00
2023-01-09T10:44:48.921Z,100761.22
2023-01-09T10:50:51.977Z,100771.81
2023-01-09T10:57:05.263Z,100751.69
2023-01-09T11:03:17.913Z,100738.53
2023-01-09T11:09:20.640Z,100737.22
2023-01-09T11:15:31.396Z,100723.34
2023-01-09T11:21:40.749Z,100721.16
2023-01-09T11:27:45.646Z,100694.31
2023-01-09T11:33:50.642Z,100680.81
2023-01-09T11:39:54.200Z,100672.72
2023-01-09T11:46:02.024Z,100666.47
2023-01-09T11:52:22.327Z,100665.50
2023-01-09T11:58:26.004Z,100655.06
2023-01-09T12:04:32.560Z,100641.19
2023-01-09T12:10:51.051Z,100634.91
2023-01-09T12:17:10.402Z,100634.22
2023-01-09T12:23:34.506Z,100628.13
2023-01-09T12:29:59.039Z,100629.09
2023-01-09T12:36:15.419Z,100613.88
2023-01-09T12:42:47.287Z,100606.03
2023-01-09T12:48:59.308Z,100605.34
2023-01-09T12:55:18.388Z,100602.16
2023-01-09T13:01:30.373Z,100577.91
2023-01-09T13:07:42.721Z,100564.00
2023-01-09T13:14:02.543Z,100557.50
2023-01-09T13:20:22.680Z,100549.94
2023-01-09T13:26:35.378Z,100561.00
2023-01-09T13:32:55.433Z,100555.88
2023-01-09T13:39:00.059Z,100566.41
2023-01-09T13:45:18.080Z,100571.81
2023-01-09T13:51:59.170Z,100576.06
2023-01-09T13:58:13.883Z,100578.94
2023-01-09T14:04:16.477Z,100567.00
2023-01-09T14:10:34.729Z,100543.03
2023-01-09T14:16:38.218Z,100536.34
2023-01-09T14:22:50.423Z,100544.34
2023-01-09T14:29:29.647Z,100537.28
2023-01-09T14:35:39.488Z,100535.88
2023-01-09T14:42:00.655Z,100522.91
2023-01-09T14:48:06.368Z,100524.03
2023-01-09T14:54:44.237Z,100501.69
2023-01-09T15:01:16.258Z,100507.56
2023-01-09T15:07:31.039Z,100507.34
2023-01-09T15:13:43.722Z,100499.31
2023-01-09T15:19:47.348Z,100486.94
2023-01-09T15:25:51.810Z,100480.78
2023-01-09T15:32:05.426Z,100475.59
2023-01-09T15:38:16.297Z,100457.16
2023-01-09T15:44:26.172Z,100459.53
2023-01-09T15:50:29.922Z,100440.97
2023-01-09T15:56:34.546Z,100449.41
2023-01-09T16:02:55.633Z,100460.16
2023-01-09T16:09:00.351Z,100443.94
2023-01-09T16:15:04.535Z,100449.19
2023-01-09T16:21:21.434Z,100440.78
2023-01-09T16:27:27.321Z,100439.53
2023-01-09T16:33:32.928Z,100429.25
2023-01-09T16:39:37.398Z,100439.50
2023-01-09T16:45:41.625Z,100428.44
2023-01-09T16:51:47.754Z,100435.78
2023-01-09T16:57:51.132Z,100429.56
2023-01-09T17:03:54.681Z,100424.84
2023-01-09T17:09:56.934Z,100423.50
2023-01-09T17:15:59.930Z,100421.13
2023-01-09T17:22:01.987Z,100424.59
2023-01-09T17:28:26.214Z,100411.22
2023-01-09T17:34:30.849Z,100418.03
2023-01-09T17:40:32.921Z,100428.53
2023-01-09T17:46:38.141Z,100409.69
2023-01-09T17:52:40.186Z,100405.56
2023-01-09T17:58:45.807Z,100401.34
2023-01-09T18:04:50.047Z,100391.94
2023-01-09T18:10:53.057Z,100381.19
2023-01-09T18:16:55.288Z,100370.47
2023-01-09T18:23:01.141Z,100344.25
2023-01-09T18:29:03.919Z,100351.09
2023-01-09T18:35:06.604Z,100351.59
2023-01-09T18:41:08.861Z,100340.09
2023-01-09T18:47:10.953Z,100329.59
2023-01-09T18:53:13.569Z,100325.41
2023-01-09T18:59:18.571Z,100316.50
2023-01-09T19:05:28.571Z,100323.84
2023-01-09T19:11:30.699Z,100310.22
2023-01-09T19:17:34.314Z,100296.59
2023-01-09T19:23:36.472Z,100295.03
2023-01-09T19:29:38.610Z,100284.06
2023-01-09T19:35:41.137Z,100279.31
2023-01-09T19:41:43.401Z,100263.31
2023-01-09T19:47:49.407Z,100248.91
2023-01-09T19:53:54.186Z,100258.13
2023-01-09T19:59:57.347Z,100256.31
2023-01-09T20:06:08.889Z,100262.81
2023-01-09T20:12:13.068Z,100253.09
2023-01-09T20:18:15.225Z,100236.31
2023-01-09T20:24:19.420Z,100238.72
2023-01-09T20:30:22.153Z,100235.09
2023-01-09T20:36:29.245Z,100239.78
2023-01-09T20:42:31.356Z,100247.59
2023-01-09T20:48:41.016Z,100242.63
2023-01-09T20:54:45.488Z,100239.47
2023-01-09T21:00:50.765Z,100240.50
2023-01-09T21:06:52.921Z,100216.41
2023-01-09T21:12:55.679Z,100214.31
2023-01-09T21:18:58.130Z,100225.88
2023-01-09T21:25:03.408Z,100227.47
2023-01-09T21:31:07.133Z,100231.44
2023-01-09T21:37:09.696Z,100230.66
2023-01-09T21:43:44.027Z,100226.50
2023-01-09T21:49:47.702Z,100228.34
2023-01-09T21:55:50.394Z,100202.16
2023-01-09T22:01:53.070Z,100214.44
2023-01-09T22:07:56.569Z,100211.03
2023-01-09T22:14:00.472Z,100199.28
2023-01-09T22:20:05.213Z,100184.09
2023-01-09T22:26:11.636Z,100158.69
2023-01-09T22:32:14.018Z,100157.88
2023-01-09T22:38:19.083Z,100151.59
2023-01-09T22:44:21.278Z,100156.78
2023-01-09T22:50:23.726Z,100166.72
2023-01-09T22:56:26.949Z,100148.97
2023-01-09T23:02:29.474Z,100136.41
2023-01-09T23:08:32.297Z,100126.75
2023-01-09T23:14:39.071Z,100115.78
2023-01-09T23:20:42.230Z,100104.53
2023-01-09T23:26:45.109Z,100108.19
2023-01-09T23:32:47.281Z,100098.00
2023-01-09T23:38:49.920Z,100100.06
2023-01-09T23:44:53.001Z,100077.84
2023-01-09T23:50:55.329Z,100094.81
2023-01-09T23:56:57.534Z,100081.03
